アルジェ の空港の天気 - METARとTAF

ウアリ・ブーメディアン空港 ( DAAG / ALG ) - アルジェリア アルジェ
飛行場実況気象(Metar)
観測時間01/23 09:00 CET (01/23 08:00 UTC)
風向・風速静穏 0m/s
視程10km以上
天気現象
少しの雲 雲底高度 700m
気温8℃
湿度93%
気圧1026hPa
METARDAAG 230800Z 00000KT 9999 FEW023 08/07 Q1026
過去の天気等 Google飛行場航空写真 Wunderground天気予報

過去48時間のMETAR

飛行場予報(TAF)
発表時間: 1/23 06:00 CET (1/23 05:00 UTC)
予報対象時間: 23日7時 CET ~ 24日7時 CET
風向・風速不定 1m/s
視程10km以上
なし
23日21時 CET ~ 24日7時 CET に 確率 30% で一時的に
視程3,000m
天気現象もや
TAF DAAG 230500Z 2306/2406 VRB02KT CAVOK
PROB30 TEMPO 2320/2406 3000 BR